sensor_id;sensor_type;location;lat;lon;timestamp;P1;durP1;ratioP1;P2;durP2;ratioP2
32297;SDS011;18782;48.984;8.548;2023-05-15T00:01:01;6.75;;;3.30;;
32297;SDS011;18782;48.984;8.548;2023-05-15T00:03:29;4.22;;;2.83;;
32297;SDS011;18782;48.984;8.548;2023-05-15T00:05:58;3.35;;;3.05;;
32297;SDS011;18782;48.984;8.548;2023-05-15T00:08:26;4.03;;;2.50;;
32297;SDS011;18782;48.984;8.548;2023-05-15T00:10:53;3.70;;;3.03;;
32297;SDS011;18782;48.984;8.548;2023-05-15T00:13:27;4.47;;;2.97;;
32297;SDS011;18782;48.984;8.548;2023-05-15T00:15:55;3.33;;;3.03;;
32297;SDS011;18782;48.984;8.548;2023-05-15T00:18:22;4.22;;;2.83;;
32297;SDS011;18782;48.984;8.548;2023-05-15T00:20:50;5.10;;;3.40;;
32297;SDS011;18782;48.984;8.548;2023-05-15T00:23:19;4.55;;;3.28;;
32297;SDS011;18782;48.984;8.548;2023-05-15T00:25:47;4.80;;;2.92;;
32297;SDS011;18782;48.984;8.548;2023-05-15T00:28:15;4.22;;;2.75;;
32297;SDS011;18782;48.984;8.548;2023-05-15T00:30:42;3.80;;;2.83;;
32297;SDS011;18782;48.984;8.548;2023-05-15T00:33:10;5.20;;;2.85;;
32297;SDS011;18782;48.984;8.548;2023-05-15T00:35:37;4.78;;;3.30;;
32297;SDS011;18782;48.984;8.548;2023-05-15T00:38:05;3.40;;;3.08;;
32297;SDS011;18782;48.984;8.548;2023-05-15T00:40:36;3.67;;;3.05;;
32297;SDS011;18782;48.984;8.548;2023-05-15T00:43:05;4.30;;;3.40;;
32297;SDS011;18782;48.984;8.548;2023-05-15T00:45:36;4.85;;;2.67;;
32297;SDS011;18782;48.984;8.548;2023-05-15T00:48:06;4.10;;;3.25;;
32297;SDS011;18782;48.984;8.548;2023-05-15T00:50:35;4.32;;;3.20;;
32297;SDS011;18782;48.984;8.548;2023-05-15T00:53:07;3.78;;;3.38;;
32297;SDS011;18782;48.984;8.548;2023-05-15T00:55:37;3.40;;;2.63;;
32297;SDS011;18782;48.984;8.548;2023-05-15T00:58:06;4.18;;;2.97;;
32297;SDS011;18782;48.984;8.548;2023-05-15T01:00:34;4.10;;;3.15;;
32297;SDS011;18782;48.984;8.548;2023-05-15T01:03:03;5.07;;;3.30;;
32297;SDS011;18782;48.984;8.548;2023-05-15T01:05:32;5.75;;;3.50;;
32297;SDS011;18782;48.984;8.548;2023-05-15T01:08:00;4.28;;;3.35;;
32297;SDS011;18782;48.984;8.548;2023-05-15T01:10:41;5.07;;;3.00;;
32297;SDS011;18782;48.984;8.548;2023-05-15T01:13:10;4.35;;;3.08;;
32297;SDS011;18782;48.984;8.548;2023-05-15T01:15:40;3.80;;;3.25;;
32297;SDS011;18782;48.984;8.548;2023-05-15T01:22:27;5.43;;;2.78;;
32297;SDS011;18782;48.984;8.548;2023-05-15T01:25:18;3.28;;;2.78;;
32297;SDS011;18782;48.984;8.548;2023-05-15T01:28:13;3.75;;;3.08;;
32297;SDS011;18782;48.984;8.548;2023-05-15T01:30:46;5.32;;;3.03;;
32297;SDS011;18782;48.984;8.548;2023-05-15T01:33:17;5.38;;;3.15;;
32297;SDS011;18782;48.984;8.548;2023-05-15T01:35:49;6.93;;;3.10;;
32297;SDS011;18782;48.984;8.548;2023-05-15T01:38:23;5.07;;;3.20;;
32297;SDS011;18782;48.984;8.548;2023-05-15T01:40:58;4.18;;;2.92;;
32297;SDS011;18782;48.984;8.548;2023-05-15T01:43:33;4.15;;;3.35;;
32297;SDS011;18782;48.984;8.548;2023-05-15T01:46:04;4.13;;;3.30;;
32297;SDS011;18782;48.984;8.548;2023-05-15T01:48:33;5.18;;;3.00;;
32297;SDS011;18782;48.984;8.548;2023-05-15T01:51:03;4.32;;;2.92;;
32297;SDS011;18782;48.984;8.548;2023-05-15T01:53:33;3.85;;;3.05;;
32297;SDS011;18782;48.984;8.548;2023-05-15T01:56:02;4.75;;;3.55;;
32297;SDS011;18782;48.984;8.548;2023-05-15T01:58:35;5.00;;;3.70;;
32297;SDS011;18782;48.984;8.548;2023-05-15T02:01:05;4.82;;;3.85;;
32297;SDS011;18782;48.984;8.548;2023-05-15T02:03:34;4.43;;;3.22;;
32297;SDS011;18782;48.984;8.548;2023-05-15T02:06:03;3.53;;;3.03;;
32297;SDS011;18782;48.984;8.548;2023-05-15T02:08:32;5.65;;;3.00;;
32297;SDS011;18782;48.984;8.548;2023-05-15T02:11:01;3.35;;;3.00;;
32297;SDS011;18782;48.984;8.548;2023-05-15T02:13:29;4.40;;;3.30;;
32297;SDS011;18782;48.984;8.548;2023-05-15T02:15:59;3.88;;;3.47;;
32297;SDS011;18782;48.984;8.548;2023-05-15T02:18:27;4.13;;;3.30;;
32297;SDS011;18782;48.984;8.548;2023-05-15T02:20:56;4.43;;;3.30;;
32297;SDS011;18782;48.984;8.548;2023-05-15T02:23:26;6.05;;;3.70;;
32297;SDS011;18782;48.984;8.548;2023-05-15T02:25:58;4.63;;;3.28;;
32297;SDS011;18782;48.984;8.548;2023-05-15T02:28:37;3.78;;;3.45;;
32297;SDS011;18782;48.984;8.548;2023-05-15T02:31:13;4.97;;;3.58;;
32297;SDS011;18782;48.984;8.548;2023-05-15T02:33:51;4.45;;;3.63;;
32297;SDS011;18782;48.984;8.548;2023-05-15T02:36:24;6.00;;;3.60;;
32297;SDS011;18782;48.984;8.548;2023-05-15T02:38:57;3.45;;;3.15;;
32297;SDS011;18782;48.984;8.548;2023-05-15T02:41:25;3.75;;;3.08;;
32297;SDS011;18782;48.984;8.548;2023-05-15T02:43:54;4.65;;;3.72;;
32297;SDS011;18782;48.984;8.548;2023-05-15T02:46:26;5.57;;;3.28;;
32297;SDS011;18782;48.984;8.548;2023-05-15T02:48:54;5.07;;;3.38;;
32297;SDS011;18782;48.984;8.548;2023-05-15T02:51:22;4.20;;;3.45;;
32297;SDS011;18782;48.984;8.548;2023-05-15T02:53:50;5.47;;;3.20;;
32297;SDS011;18782;48.984;8.548;2023-05-15T02:56:18;3.70;;;3.00;;
32297;SDS011;18782;48.984;8.548;2023-05-15T02:58:46;4.53;;;3.22;;
32297;SDS011;18782;48.984;8.548;2023-05-15T03:01:14;3.25;;;2.92;;
32297;SDS011;18782;48.984;8.548;2023-05-15T03:03:43;5.75;;;3.63;;
32297;SDS011;18782;48.984;8.548;2023-05-15T03:06:12;6.57;;;3.85;;
32297;SDS011;18782;48.984;8.548;2023-05-15T03:08:40;4.60;;;3.40;;
32297;SDS011;18782;48.984;8.548;2023-05-15T03:11:08;4.82;;;3.30;;
32297;SDS011;18782;48.984;8.548;2023-05-15T03:13:35;4.28;;;3.65;;
32297;SDS011;18782;48.984;8.548;2023-05-15T03:16:03;5.55;;;3.30;;
32297;SDS011;18782;48.984;8.548;2023-05-15T03:18:31;3.20;;;2.90;;
32297;SDS011;18782;48.984;8.548;2023-05-15T03:21:00;4.80;;;3.20;;
32297;SDS011;18782;48.984;8.548;2023-05-15T03:23:28;6.18;;;3.45;;
32297;SDS011;18782;48.984;8.548;2023-05-15T03:25:56;7.25;;;3.80;;
32297;SDS011;18782;48.984;8.548;2023-05-15T03:28:24;4.15;;;3.47;;
32297;SDS011;18782;48.984;8.548;2023-05-15T03:30:51;4.72;;;3.70;;
32297;SDS011;18782;48.984;8.548;2023-05-15T03:33:19;4.10;;;3.20;;
32297;SDS011;18782;48.984;8.548;2023-05-15T03:35:46;3.35;;;3.00;;
32297;SDS011;18782;48.984;8.548;2023-05-15T03:38:18;3.80;;;2.95;;
32297;SDS011;18782;48.984;8.548;2023-05-15T03:40:46;3.95;;;3.22;;
32297;SDS011;18782;48.984;8.548;2023-05-15T03:43:16;4.47;;;3.58;;
32297;SDS011;18782;48.984;8.548;2023-05-15T03:45:46;6.10;;;4.30;;
32297;SDS011;18782;48.984;8.548;2023-05-15T03:48:14;3.38;;;2.97;;
32297;SDS011;18782;48.984;8.548;2023-05-15T03:50:43;4.30;;;3.03;;
32297;SDS011;18782;48.984;8.548;2023-05-15T03:53:11;3.17;;;2.55;;
32297;SDS011;18782;48.984;8.548;2023-05-15T03:55:40;5.53;;;3.38;;
32297;SDS011;18782;48.984;8.548;2023-05-15T03:58:08;3.13;;;2.83;;
32297;SDS011;18782;48.984;8.548;2023-05-15T04:00:35;4.55;;;3.33;;
32297;SDS011;18782;48.984;8.548;2023-05-15T04:03:03;6.95;;;3.72;;
32297;SDS011;18782;48.984;8.548;2023-05-15T04:05:30;4.70;;;3.17;;
32297;SDS011;18782;48.984;8.548;2023-05-15T04:07:58;4.45;;;2.97;;
32297;SDS011;18782;48.984;8.548;2023-05-15T04:10:26;6.10;;;4.53;;
32297;SDS011;18782;48.984;8.548;2023-05-15T04:12:55;5.65;;;4.32;;
32297;SDS011;18782;48.984;8.548;2023-05-15T04:15:23;5.70;;;3.80;;
32297;SDS011;18782;48.984;8.548;2023-05-15T04:17:54;8.43;;;5.70;;
32297;SDS011;18782;48.984;8.548;2023-05-15T04:20:22;4.13;;;3.20;;
32297;SDS011;18782;48.984;8.548;2023-05-15T04:22:51;4.13;;;3.17;;
32297;SDS011;18782;48.984;8.548;2023-05-15T04:25:19;4.25;;;3.38;;
32297;SDS011;18782;48.984;8.548;2023-05-15T04:27:47;5.45;;;4.15;;
32297;SDS011;18782;48.984;8.548;2023-05-15T04:30:16;3.92;;;3.20;;
32297;SDS011;18782;48.984;8.548;2023-05-15T04:32:44;4.93;;;3.33;;
32297;SDS011;18782;48.984;8.548;2023-05-15T04:35:12;3.30;;;2.67;;
32297;SDS011;18782;48.984;8.548;2023-05-15T04:37:40;3.85;;;3.00;;
32297;SDS011;18782;48.984;8.548;2023-05-15T04:40:10;6.05;;;3.58;;
32297;SDS011;18782;48.984;8.548;2023-05-15T04:42:40;3.33;;;3.00;;
32297;SDS011;18782;48.984;8.548;2023-05-15T04:45:08;3.83;;;3.03;;
32297;SDS011;18782;48.984;8.548;2023-05-15T04:47:37;4.03;;;2.90;;
32297;SDS011;18782;48.984;8.548;2023-05-15T04:50:05;5.10;;;3.38;;
32297;SDS011;18782;48.984;8.548;2023-05-15T04:52:34;6.13;;;3.92;;
32297;SDS011;18782;48.984;8.548;2023-05-15T04:55:01;5.25;;;3.95;;
32297;SDS011;18782;48.984;8.548;2023-05-15T04:57:29;4.85;;;3.58;;
32297;SDS011;18782;48.984;8.548;2023-05-15T04:59:57;3.90;;;3.33;;
32297;SDS011;18782;48.984;8.548;2023-05-15T05:02:24;3.70;;;3.30;;
32297;SDS011;18782;48.984;8.548;2023-05-15T05:04:54;4.22;;;3.35;;
32297;SDS011;18782;48.984;8.548;2023-05-15T05:07:21;5.70;;;3.67;;
32297;SDS011;18782;48.984;8.548;2023-05-15T05:09:49;4.30;;;3.55;;
32297;SDS011;18782;48.984;8.548;2023-05-15T05:12:16;4.72;;;3.28;;
32297;SDS011;18782;48.984;8.548;2023-05-15T05:14:44;3.35;;;3.00;;
32297;SDS011;18782;48.984;8.548;2023-05-15T05:17:11;6.22;;;3.75;;
32297;SDS011;18782;48.984;8.548;2023-05-15T05:19:39;4.43;;;3.05;;
32297;SDS011;18782;48.984;8.548;2023-05-15T05:22:09;6.32;;;3.90;;
32297;SDS011;18782;48.984;8.548;2023-05-15T05:24:37;3.83;;;3.15;;
32297;SDS011;18782;48.984;8.548;2023-05-15T05:27:04;4.78;;;3.63;;
32297;SDS011;18782;48.984;8.548;2023-05-15T05:29:32;5.90;;;3.45;;
32297;SDS011;18782;48.984;8.548;2023-05-15T05:32:00;4.80;;;3.67;;
32297;SDS011;18782;48.984;8.548;2023-05-15T05:34:27;10.00;;;6.97;;
32297;SDS011;18782;48.984;8.548;2023-05-15T05:36:55;14.02;;;9.15;;
32297;SDS011;18782;48.984;8.548;2023-05-15T05:39:24;5.70;;;4.32;;
32297;SDS011;18782;48.984;8.548;2023-05-15T05:41:52;5.88;;;4.38;;
32297;SDS011;18782;48.984;8.548;2023-05-15T05:44:19;4.97;;;4.43;;
32297;SDS011;18782;48.984;8.548;2023-05-15T05:46:47;4.28;;;3.85;;
32297;SDS011;18782;48.984;8.548;2023-05-15T05:49:15;4.03;;;3.45;;
32297;SDS011;18782;48.984;8.548;2023-05-15T05:51:43;3.63;;;2.80;;
32297;SDS011;18782;48.984;8.548;2023-05-15T05:54:11;3.40;;;2.97;;
32297;SDS011;18782;48.984;8.548;2023-05-15T05:56:41;4.40;;;2.60;;
32297;SDS011;18782;48.984;8.548;2023-05-15T05:59:09;4.93;;;3.95;;
32297;SDS011;18782;48.984;8.548;2023-05-15T06:01:36;6.80;;;4.60;;
32297;SDS011;18782;48.984;8.548;2023-05-15T06:04:04;17.50;;;10.35;;
32297;SDS011;18782;48.984;8.548;2023-05-15T06:06:32;6.85;;;4.38;;
32297;SDS011;18782;48.984;8.548;2023-05-15T06:09:00;3.95;;;3.53;;
32297;SDS011;18782;48.984;8.548;2023-05-15T06:11:29;5.07;;;4.03;;
32297;SDS011;18782;48.984;8.548;2023-05-15T06:13:58;3.35;;;2.97;;
32297;SDS011;18782;48.984;8.548;2023-05-15T06:16:25;2.60;;;2.22;;
32297;SDS011;18782;48.984;8.548;2023-05-15T06:18:53;3.03;;;2.10;;
32297;SDS011;18782;48.984;8.548;2023-05-15T06:21:21;2.38;;;2.17;;
32297;SDS011;18782;48.984;8.548;2023-05-15T06:23:48;3.70;;;2.15;;
32297;SDS011;18782;48.984;8.548;2023-05-15T06:26:16;2.53;;;2.20;;
32297;SDS011;18782;48.984;8.548;2023-05-15T06:28:44;5.43;;;2.15;;
32297;SDS011;18782;48.984;8.548;2023-05-15T06:31:13;3.95;;;2.38;;
32297;SDS011;18782;48.984;8.548;2023-05-15T06:33:42;3.45;;;2.50;;
32297;SDS011;18782;48.984;8.548;2023-05-15T06:36:10;4.28;;;2.55;;
32297;SDS011;18782;48.984;8.548;2023-05-15T06:38:37;3.40;;;2.40;;
32297;SDS011;18782;48.984;8.548;2023-05-15T06:41:05;2.97;;;2.40;;
32297;SDS011;18782;48.984;8.548;2023-05-15T06:43:32;2.30;;;1.90;;
32297;SDS011;18782;48.984;8.548;2023-05-15T06:46:01;3.60;;;2.47;;
32297;SDS011;18782;48.984;8.548;2023-05-15T06:48:31;4.05;;;2.50;;
32297;SDS011;18782;48.984;8.548;2023-05-15T06:50:58;3.88;;;2.20;;
32297;SDS011;18782;48.984;8.548;2023-05-15T06:53:28;4.45;;;2.60;;
32297;SDS011;18782;48.984;8.548;2023-05-15T06:55:56;3.08;;;2.70;;
32297;SDS011;18782;48.984;8.548;2023-05-15T06:58:24;3.33;;;2.35;;
32297;SDS011;18782;48.984;8.548;2023-05-15T07:00:51;4.30;;;2.70;;
32297;SDS011;18782;48.984;8.548;2023-05-15T07:03:21;7.13;;;2.72;;
32297;SDS011;18782;48.984;8.548;2023-05-15T07:05:50;3.50;;;2.50;;
32297;SDS011;18782;48.984;8.548;2023-05-15T07:08:18;5.97;;;2.47;;
32297;SDS011;18782;48.984;8.548;2023-05-15T07:10:47;3.28;;;2.30;;
32297;SDS011;18782;48.984;8.548;2023-05-15T07:13:15;4.40;;;2.92;;
32297;SDS011;18782;48.984;8.548;2023-05-15T07:15:43;3.35;;;2.60;;
32297;SDS011;18782;48.984;8.548;2023-05-15T07:18:11;3.42;;;2.50;;
32297;SDS011;18782;48.984;8.548;2023-05-15T07:20:39;4.60;;;2.50;;
32297;SDS011;18782;48.984;8.548;2023-05-15T07:23:08;3.03;;;2.70;;
32297;SDS011;18782;48.984;8.548;2023-05-15T07:25:35;3.17;;;2.70;;
32297;SDS011;18782;48.984;8.548;2023-05-15T07:28:03;4.15;;;2.60;;
32297;SDS011;18782;48.984;8.548;2023-05-15T07:30:31;4.68;;;2.55;;
32297;SDS011;18782;48.984;8.548;2023-05-15T07:32:58;4.13;;;2.35;;
32297;SDS011;18782;48.984;8.548;2023-05-15T07:35:26;3.33;;;2.50;;
32297;SDS011;18782;48.984;8.548;2023-05-15T07:37:54;3.67;;;2.60;;
32297;SDS011;18782;48.984;8.548;2023-05-15T07:40:23;2.80;;;2.17;;
32297;SDS011;18782;48.984;8.548;2023-05-15T07:42:50;3.35;;;2.40;;
32297;SDS011;18782;48.984;8.548;2023-05-15T07:45:18;5.40;;;2.72;;
32297;SDS011;18782;48.984;8.548;2023-05-15T07:47:45;2.90;;;2.38;;
32297;SDS011;18782;48.984;8.548;2023-05-15T07:50:14;3.35;;;2.60;;
32297;SDS011;18782;48.984;8.548;2023-05-15T07:52:42;3.20;;;2.25;;
32297;SDS011;18782;48.984;8.548;2023-05-15T07:55:10;4.78;;;2.03;;
32297;SDS011;18782;48.984;8.548;2023-05-15T07:57:39;2.65;;;2.20;;
32297;SDS011;18782;48.984;8.548;2023-05-15T08:00:07;3.00;;;2.25;;
32297;SDS011;18782;48.984;8.548;2023-05-15T08:02:39;3.33;;;2.17;;
32297;SDS011;18782;48.984;8.548;2023-05-15T08:05:08;2.97;;;2.67;;
32297;SDS011;18782;48.984;8.548;2023-05-15T08:07:35;3.42;;;2.50;;
32297;SDS011;18782;48.984;8.548;2023-05-15T08:10:04;5.13;;;2.40;;
32297;SDS011;18782;48.984;8.548;2023-05-15T08:12:32;3.35;;;2.20;;
32297;SDS011;18782;48.984;8.548;2023-05-15T08:15:01;4.13;;;1.90;;
32297;SDS011;18782;48.984;8.548;2023-05-15T08:17:29;2.72;;;2.28;;
32297;SDS011;18782;48.984;8.548;2023-05-15T08:19:57;3.17;;;2.17;;
32297;SDS011;18782;48.984;8.548;2023-05-15T08:22:25;3.67;;;2.03;;
32297;SDS011;18782;48.984;8.548;2023-05-15T08:24:52;1.92;;;1.70;;
32297;SDS011;18782;48.984;8.548;2023-05-15T08:27:20;3.60;;;2.10;;
32297;SDS011;18782;48.984;8.548;2023-05-15T08:29:47;3.42;;;2.30;;
32297;SDS011;18782;48.984;8.548;2023-05-15T08:32:16;5.78;;;2.75;;
32297;SDS011;18782;48.984;8.548;2023-05-15T08:34:44;2.72;;;1.90;;
32297;SDS011;18782;48.984;8.548;2023-05-15T08:37:12;3.33;;;2.00;;
32297;SDS011;18782;48.984;8.548;2023-05-15T08:39:39;3.10;;;2.22;;
32297;SDS011;18782;48.984;8.548;2023-05-15T08:42:07;2.88;;;2.10;;
32297;SDS011;18782;48.984;8.548;2023-05-15T08:44:40;2.72;;;2.22;;
32297;SDS011;18782;48.984;8.548;2023-05-15T08:47:08;2.72;;;2.17;;
32297;SDS011;18782;48.984;8.548;2023-05-15T08:49:40;2.70;;;2.20;;
32297;SDS011;18782;48.984;8.548;2023-05-15T08:52:16;3.90;;;2.75;;
32297;SDS011;18782;48.984;8.548;2023-05-15T08:54:44;3.58;;;2.28;;
32297;SDS011;18782;48.984;8.548;2023-05-15T08:57:13;2.50;;;2.30;;
32297;SDS011;18782;48.984;8.548;2023-05-15T08:59:42;2.17;;;1.95;;
32297;SDS011;18782;48.984;8.548;2023-05-15T09:02:10;2.00;;;1.80;;
32297;SDS011;18782;48.984;8.548;2023-05-15T09:04:37;2.90;;;2.00;;
32297;SDS011;18782;48.984;8.548;2023-05-15T09:07:06;3.28;;;1.98;;
32297;SDS011;18782;48.984;8.548;2023-05-15T09:09:35;2.30;;;1.73;;
32297;SDS011;18782;48.984;8.548;2023-05-15T09:12:04;2.60;;;1.65;;
32297;SDS011;18782;48.984;8.548;2023-05-15T09:14:36;2.47;;;2.10;;
32297;SDS011;18782;48.984;8.548;2023-05-15T09:17:04;2.75;;;1.90;;
32297;SDS011;18782;48.984;8.548;2023-05-15T09:19:32;4.03;;;1.65;;
32297;SDS011;18782;48.984;8.548;2023-05-15T09:22:13;4.50;;;2.20;;
32297;SDS011;18782;48.984;8.548;2023-05-15T09:24:43;2.05;;;1.73;;
32297;SDS011;18782;48.984;8.548;2023-05-15T09:27:13;4.50;;;2.42;;
32297;SDS011;18782;48.984;8.548;2023-05-15T09:29:40;1.92;;;1.73;;
32297;SDS011;18782;48.984;8.548;2023-05-15T09:32:09;2.22;;;1.90;;
32297;SDS011;18782;48.984;8.548;2023-05-15T09:34:39;3.25;;;1.80;;
32297;SDS011;18782;48.984;8.548;2023-05-15T09:37:09;3.35;;;1.75;;
32297;SDS011;18782;48.984;8.548;2023-05-15T09:39:40;1.85;;;1.42;;
32297;SDS011;18782;48.984;8.548;2023-05-15T09:42:09;6.13;;;2.08;;
32297;SDS011;18782;48.984;8.548;2023-05-15T09:44:39;1.58;;;1.48;;
32297;SDS011;18782;48.984;8.548;2023-05-15T09:47:08;1.77;;;1.42;;
32297;SDS011;18782;48.984;8.548;2023-05-15T09:49:37;1.90;;;1.30;;
32297;SDS011;18782;48.984;8.548;2023-05-15T09:52:06;2.72;;;1.48;;
32297;SDS011;18782;48.984;8.548;2023-05-15T09:54:35;2.90;;;1.67;;
32297;SDS011;18782;48.984;8.548;2023-05-15T09:57:07;1.80;;;1.27;;
32297;SDS011;18782;48.984;8.548;2023-05-15T09:59:43;1.83;;;1.30;;
32297;SDS011;18782;48.984;8.548;2023-05-15T10:02:12;1.40;;;1.10;;
32297;SDS011;18782;48.984;8.548;2023-05-15T10:07:18;2.20;;;1.55;;
32297;SDS011;18782;48.984;8.548;2023-05-15T10:09:54;1.98;;;1.40;;
32297;SDS011;18782;48.984;8.548;2023-05-15T10:12:23;1.55;;;1.10;;
32297;SDS011;18782;48.984;8.548;2023-05-15T10:14:52;2.55;;;1.48;;
32297;SDS011;18782;48.984;8.548;2023-05-15T10:17:22;1.60;;;1.30;;
32297;SDS011;18782;48.984;8.548;2023-05-15T10:19:50;2.85;;;1.70;;
32297;SDS011;18782;48.984;8.548;2023-05-15T10:22:25;1.45;;;1.23;;
32297;SDS011;18782;48.984;8.548;2023-05-15T10:24:56;1.70;;;1.30;;
32297;SDS011;18782;48.984;8.548;2023-05-15T10:27:30;3.10;;;1.40;;
32297;SDS011;18782;48.984;8.548;2023-05-15T10:30:01;2.17;;;1.70;;
32297;SDS011;18782;48.984;8.548;2023-05-15T10:32:29;3.80;;;1.60;;
32297;SDS011;18782;48.984;8.548;2023-05-15T10:34:59;3.58;;;2.00;;
32297;SDS011;18782;48.984;8.548;2023-05-15T10:37:27;2.40;;;1.60;;
32297;SDS011;18782;48.984;8.548;2023-05-15T10:39:55;3.47;;;1.40;;
32297;SDS011;18782;48.984;8.548;2023-05-15T10:42:24;2.30;;;1.60;;
32297;SDS011;18782;48.984;8.548;2023-05-15T10:44:54;1.95;;;1.30;;
32297;SDS011;18782;48.984;8.548;2023-05-15T10:47:25;1.48;;;1.35;;
32297;SDS011;18782;48.984;8.548;2023-05-15T10:49:53;1.85;;;1.50;;
32297;SDS011;18782;48.984;8.548;2023-05-15T10:52:20;2.40;;;1.50;;
32297;SDS011;18782;48.984;8.548;2023-05-15T10:54:48;1.60;;;1.38;;
32297;SDS011;18782;48.984;8.548;2023-05-15T10:57:16;2.92;;;1.58;;
32297;SDS011;18782;48.984;8.548;2023-05-15T10:59:44;1.60;;;1.50;;
32297;SDS011;18782;48.984;8.548;2023-05-15T11:02:19;3.00;;;1.58;;
32297;SDS011;18782;48.984;8.548;2023-05-15T11:04:52;1.90;;;1.40;;
32297;SDS011;18782;48.984;8.548;2023-05-15T11:07:21;2.25;;;1.80;;
32297;SDS011;18782;48.984;8.548;2023-05-15T11:09:51;2.72;;;1.40;;
32297;SDS011;18782;48.984;8.548;2023-05-15T11:12:19;2.00;;;1.20;;
32297;SDS011;18782;48.984;8.548;2023-05-15T11:18:04;1.75;;;1.23;;
32297;SDS011;18782;48.984;8.548;2023-05-15T11:20:37;7.25;;;4.65;;
32297;SDS011;18782;48.984;8.548;2023-05-15T11:23:09;1.40;;;1.25;;
32297;SDS011;18782;48.984;8.548;2023-05-15T11:25:37;3.38;;;1.42;;
32297;SDS011;18782;48.984;8.548;2023-05-15T11:28:13;2.00;;;1.20;;
32297;SDS011;18782;48.984;8.548;2023-05-15T11:30:49;3.35;;;1.65;;
32297;SDS011;18782;48.984;8.548;2023-05-15T11:33:19;2.47;;;1.50;;
32297;SDS011;18782;48.984;8.548;2023-05-15T11:35:47;3.42;;;1.15;;
32297;SDS011;18782;48.984;8.548;2023-05-15T11:38:24;1.20;;;1.00;;
32297;SDS011;18782;48.984;8.548;2023-05-15T11:40:52;1.85;;;0.85;;
32297;SDS011;18782;48.984;8.548;2023-05-15T11:43:22;1.20;;;0.73;;
32297;SDS011;18782;48.984;8.548;2023-05-15T11:45:51;1.00;;;0.90;;
32297;SDS011;18782;48.984;8.548;2023-05-15T11:48:22;1.00;;;0.60;;
32297;SDS011;18782;48.984;8.548;2023-05-15T11:50:51;1.00;;;0.55;;
32297;SDS011;18782;48.984;8.548;2023-05-15T11:53:20;2.45;;;0.73;;
32297;SDS011;18782;48.984;8.548;2023-05-15T11:55:50;0.70;;;0.60;;
32297;SDS011;18782;48.984;8.548;2023-05-15T11:58:20;1.48;;;0.63;;
32297;SDS011;18782;48.984;8.548;2023-05-15T12:00:49;0.88;;;0.70;;
32297;SDS011;18782;48.984;8.548;2023-05-15T12:03:21;2.97;;;0.80;;
32297;SDS011;18782;48.984;8.548;2023-05-15T12:05:52;1.38;;;0.70;;
32297;SDS011;18782;48.984;8.548;2023-05-15T12:08:25;2.15;;;1.20;;
32297;SDS011;18782;48.984;8.548;2023-05-15T12:10:58;2.90;;;0.70;;
32297;SDS011;18782;48.984;8.548;2023-05-15T12:13:26;2.97;;;0.73;;
32297;SDS011;18782;48.984;8.548;2023-05-15T12:15:54;3.22;;;0.75;;
32297;SDS011;18782;48.984;8.548;2023-05-15T12:18:24;2.03;;;0.98;;
32297;SDS011;18782;48.984;8.548;2023-05-15T12:20:52;1.45;;;0.80;;
32297;SDS011;18782;48.984;8.548;2023-05-15T12:23:21;2.28;;;1.10;;
32297;SDS011;18782;48.984;8.548;2023-05-15T12:25:50;1.58;;;0.90;;
32297;SDS011;18782;48.984;8.548;2023-05-15T12:28:23;2.10;;;0.93;;
32297;SDS011;18782;48.984;8.548;2023-05-15T12:30:51;2.03;;;1.00;;
32297;SDS011;18782;48.984;8.548;2023-05-15T12:33:20;1.27;;;1.00;;
32297;SDS011;18782;48.984;8.548;2023-05-15T12:35:52;1.15;;;0.90;;
32297;SDS011;18782;48.984;8.548;2023-05-15T12:38:25;1.77;;;1.10;;
32297;SDS011;18782;48.984;8.548;2023-05-15T12:40:53;1.80;;;1.17;;
32297;SDS011;18782;48.984;8.548;2023-05-15T12:43:22;1.40;;;0.98;;
32297;SDS011;18782;48.984;8.548;2023-05-15T12:45:51;0.90;;;0.82;;
32297;SDS011;18782;48.984;8.548;2023-05-15T12:48:19;1.25;;;0.80;;
32297;SDS011;18782;48.984;8.548;2023-05-15T12:50:47;1.48;;;0.90;;
32297;SDS011;18782;48.984;8.548;2023-05-15T12:53:16;1.65;;;1.23;;
32297;SDS011;18782;48.984;8.548;2023-05-15T12:55:44;2.50;;;1.15;;
32297;SDS011;18782;48.984;8.548;2023-05-15T12:58:14;1.10;;;1.00;;
32297;SDS011;18782;48.984;8.548;2023-05-15T13:00:44;1.77;;;0.80;;
32297;SDS011;18782;48.984;8.548;2023-05-15T13:03:13;2.05;;;1.00;;
32297;SDS011;18782;48.984;8.548;2023-05-15T13:05:41;2.13;;;1.00;;
32297;SDS011;18782;48.984;8.548;2023-05-15T13:08:13;1.08;;;0.70;;
32297;SDS011;18782;48.984;8.548;2023-05-15T13:10:43;1.48;;;0.73;;
32297;SDS011;18782;48.984;8.548;2023-05-15T13:13:11;1.17;;;0.93;;
32297;SDS011;18782;48.984;8.548;2023-05-15T13:15:39;1.17;;;0.80;;
32297;SDS011;18782;48.984;8.548;2023-05-15T13:18:10;0.98;;;0.88;;
32297;SDS011;18782;48.984;8.548;2023-05-15T13:20:39;0.95;;;0.73;;
32297;SDS011;18782;48.984;8.548;2023-05-15T13:23:08;1.55;;;0.90;;
32297;SDS011;18782;48.984;8.548;2023-05-15T13:25:36;1.33;;;0.80;;
32297;SDS011;18782;48.984;8.548;2023-05-15T13:28:05;1.00;;;0.70;;
32297;SDS011;18782;48.984;8.548;2023-05-15T13:30:36;1.73;;;0.90;;
32297;SDS011;18782;48.984;8.548;2023-05-15T13:33:07;2.17;;;1.00;;
32297;SDS011;18782;48.984;8.548;2023-05-15T13:35:35;1.70;;;1.25;;
32297;SDS011;18782;48.984;8.548;2023-05-15T13:38:04;2.92;;;1.20;;
32297;SDS011;18782;48.984;8.548;2023-05-15T13:40:36;2.92;;;0.98;;
32297;SDS011;18782;48.984;8.548;2023-05-15T13:43:05;1.65;;;1.38;;
32297;SDS011;18782;48.984;8.548;2023-05-15T13:45:33;1.33;;;1.15;;
32297;SDS011;18782;48.984;8.548;2023-05-15T13:48:01;1.75;;;1.27;;
32297;SDS011;18782;48.984;8.548;2023-05-15T13:50:29;2.08;;;1.52;;
32297;SDS011;18782;48.984;8.548;2023-05-15T13:52:57;2.05;;;1.35;;
32297;SDS011;18782;48.984;8.548;2023-05-15T13:55:24;3.55;;;1.05;;
32297;SDS011;18782;48.984;8.548;2023-05-15T13:57:52;2.72;;;1.42;;
32297;SDS011;18782;48.984;8.548;2023-05-15T14:00:21;2.35;;;1.25;;
32297;SDS011;18782;48.984;8.548;2023-05-15T14:02:49;1.38;;;0.82;;
32297;SDS011;18782;48.984;8.548;2023-05-15T14:05:17;2.17;;;1.25;;
32297;SDS011;18782;48.984;8.548;2023-05-15T14:07:44;1.38;;;1.20;;
32297;SDS011;18782;48.984;8.548;2023-05-15T14:10:12;1.60;;;0.80;;
32297;SDS011;18782;48.984;8.548;2023-05-15T14:12:39;2.75;;;1.00;;
32297;SDS011;18782;48.984;8.548;2023-05-15T14:15:09;2.50;;;0.90;;
32297;SDS011;18782;48.984;8.548;2023-05-15T14:17:39;1.67;;;1.10;;
32297;SDS011;18782;48.984;8.548;2023-05-15T14:20:07;2.38;;;1.20;;
32297;SDS011;18782;48.984;8.548;2023-05-15T14:22:36;1.60;;;1.02;;
32297;SDS011;18782;48.984;8.548;2023-05-15T14:25:04;1.88;;;1.20;;
32297;SDS011;18782;48.984;8.548;2023-05-15T14:27:33;2.15;;;1.10;;
32297;SDS011;18782;48.984;8.548;2023-05-15T14:30:01;2.35;;;1.40;;
32297;SDS011;18782;48.984;8.548;2023-05-15T14:32:29;1.85;;;1.13;;
32297;SDS011;18782;48.984;8.548;2023-05-15T14:34:58;1.30;;;0.98;;
32297;SDS011;18782;48.984;8.548;2023-05-15T14:37:26;2.00;;;1.10;;
32297;SDS011;18782;48.984;8.548;2023-05-15T14:39:54;2.33;;;1.30;;
32297;SDS011;18782;48.984;8.548;2023-05-15T14:42:21;1.70;;;0.90;;
32297;SDS011;18782;48.984;8.548;2023-05-15T14:44:49;2.65;;;1.40;;
32297;SDS011;18782;48.984;8.548;2023-05-15T14:47:17;1.83;;;1.20;;
32297;SDS011;18782;48.984;8.548;2023-05-15T14:49:44;2.40;;;1.30;;
32297;SDS011;18782;48.984;8.548;2023-05-15T14:52:13;3.83;;;1.52;;
32297;SDS011;18782;48.984;8.548;2023-05-15T14:54:41;3.25;;;1.40;;
32297;SDS011;18782;48.984;8.548;2023-05-15T14:57:11;1.83;;;1.30;;
32297;SDS011;18782;48.984;8.548;2023-05-15T14:59:38;2.13;;;1.38;;
32297;SDS011;18782;48.984;8.548;2023-05-15T15:02:06;2.95;;;1.40;;
32297;SDS011;18782;48.984;8.548;2023-05-15T15:04:34;1.92;;;1.13;;
32297;SDS011;18782;48.984;8.548;2023-05-15T15:07:02;2.20;;;1.60;;
32297;SDS011;18782;48.984;8.548;2023-05-15T15:09:31;1.65;;;1.38;;